Time;durP1;ratioP1;P1;durP2;ratioP2;P2;SDS_P1;SDS_P2;PMS_P1;PMS_P2;Temp;Humidity;BMP_temperature;BMP_pressure;BME280_temperature;BME280_humidity;BME280_pressure;Samples;Min_cycle;Max_cycle;Signal;HPM_P1;HPM_P2
2024/01/14 00:01:53;;;;;;;1.60;1.07;;;;;;;-4.83;100.00;99150.75;5108941;28;20933;-64
2024/01/14 00:04:21;;;;;;;0.33;0.33;;;;;;;-4.84;100.00;99154.06;5108906;28;20431;-63
2024/01/14 00:06:49;;;;;;;1.00;1.00;;;;;;;-4.76;100.00;99150.69;5108928;28;20447;-64
2024/01/14 00:09:16;;;;;;;0.53;0.53;;;;;;;-4.76;100.00;99155.66;5110641;28;20945;-63
2024/01/14 00:11:43;;;;;;;0.60;0.60;;;;;;;-4.79;100.00;99159.84;5113258;28;20866;-64
2024/01/14 00:14:10;;;;;;;0.53;0.53;;;;;;;-4.69;100.00;99157.25;5112747;28;20450;-64
2024/01/14 00:16:37;;;;;;;3.30;1.50;;;;;;;-4.72;100.00;99157.28;5113235;28;20455;-64
2024/01/14 00:19:05;;;;;;;0.57;0.57;;;;;;;-4.69;100.00;99157.25;5112907;28;20967;-63
2024/01/14 00:21:33;;;;;;;1.90;0.77;;;;;;;-4.63;100.00;99147.22;5113031;28;20476;-63
2024/01/14 00:24:00;;;;;;;1.80;1.13;;;;;;;-4.69;100.00;99147.28;5112892;28;20534;-64
2024/01/14 00:26:28;;;;;;;0.40;0.37;;;;;;;-4.66;100.00;99142.25;5112738;28;20461;-64
2024/01/14 00:28:57;;;;;;;0.83;0.83;;;;;;;-4.62;100.00;99143.91;5112457;28;20847;-63
2024/01/14 00:31:23;;;;;;;1.60;1.27;;;;;;;-4.68;100.00;99133.94;5112798;28;20577;-63
2024/01/14 00:33:51;;;;;;;1.27;0.63;;;;;;;-4.72;100.00;99139.81;5112422;28;20446;-63
2024/01/14 00:36:18;;;;;;;4.43;1.17;;;;;;;-4.74;100.00;99129.03;5112904;28;20682;-63
2024/01/14 00:38:46;;;;;;;0.43;0.43;;;;;;;-4.70;100.00;99124.00;5112573;28;20963;-63
2024/01/14 00:41:13;;;;;;;0.30;0.30;;;;;;;-4.68;100.00;99124.84;5112393;28;20450;-64
2024/01/14 00:43:40;;;;;;;1.23;1.00;;;;;;;-4.64;100.00;99126.44;5112608;28;20735;-64
2024/01/14 00:46:07;;;;;;;0.40;0.40;;;;;;;-4.58;100.00;99123.06;5112510;28;20450;-63
2024/01/14 00:48:33;;;;;;;0.77;0.77;;;;;;;-4.58;100.00;99128.03;5112611;28;20439;-64
2024/01/14 00:51:00;;;;;;;0.93;0.67;;;;;;;-4.53;100.00;99128.84;5112385;28;20494;-63
2024/01/14 00:53:27;;;;;;;0.30;0.30;;;;;;;-4.46;100.00;99115.44;5111999;28;20453;-64
2024/01/14 00:55:55;;;;;;;0.70;0.70;;;;;;;-4.48;100.00;99107.16;5112371;28;20459;-64
2024/01/14 00:58:22;;;;;;;0.40;0.40;;;;;;;-4.51;100.00;99097.19;5112015;28;20838;-63
2024/01/14 01:00:49;;;;;;;1.00;1.00;;;;;;;-4.54;100.00;99097.22;5112309;28;20449;-64
2024/01/14 01:03:15;;;;;;;0.90;0.90;;;;;;;-4.50;100.00;99098.84;5112037;28;20964;-63
2024/01/14 01:05:42;;;;;;;0.60;0.60;;;;;;;-4.51;100.00;99092.19;5112190;28;20438;-64
2024/01/14 01:08:09;;;;;;;1.27;0.97;;;;;;;-4.48;100.00;99091.34;5111848;27;20856;-63
2024/01/14 01:10:36;;;;;;;1.00;1.00;;;;;;;-4.58;100.00;99090.63;5112421;28;20486;-63
2024/01/14 01:13:04;;;;;;;0.93;0.93;;;;;;;-4.47;100.00;99078.84;5111851;28;20447;-63
2024/01/14 01:15:31;;;;;;;3.60;1.30;;;;;;;-4.45;100.00;99072.19;5111824;28;20464;-63
2024/01/14 01:17:58;;;;;;;0.77;0.77;;;;;;;-4.40;100.00;99060.47;5111984;28;20474;-64
2024/01/14 01:20:25;;;;;;;0.27;0.27;;;;;;;-4.37;100.00;99059.59;5111275;28;20837;-63
2024/01/14 01:22:52;;;;;;;0.60;0.60;;;;;;;-4.36;100.00;99057.09;5111689;28;20851;-63
2024/01/14 01:25:18;;;;;;;1.03;0.77;;;;;;;-4.44;100.00;99053.88;5111807;28;20454;-63
2024/01/14 01:27:45;;;;;;;1.07;0.87;;;;;;;-4.45;100.00;99047.25;5111594;28;20974;-64
2024/01/14 01:30:14;;;;;;;2.10;1.57;;;;;;;-4.46;100.00;99045.56;5111514;28;20547;-63
2024/01/14 01:32:41;;;;;;;1.33;0.80;;;;;;;-4.48;100.00;99044.78;5111463;28;20947;-63
2024/01/14 01:35:08;;;;;;;1.13;1.10;;;;;;;-4.55;100.00;99046.50;5111325;28;20863;-64
2024/01/14 01:37:35;;;;;;;0.40;0.40;;;;;;;-4.53;100.00;99044.00;5111780;28;20477;-63
2024/01/14 01:40:03;;;;;;;1.50;1.03;;;;;;;-4.52;100.00;99045.66;5111226;28;20864;-63
2024/01/14 01:42:30;;;;;;;0.67;0.67;;;;;;;-4.58;100.00;99035.75;5111438;28;20664;-63
2024/01/14 01:44:57;;;;;;;2.80;0.97;;;;;;;-4.63;100.00;99037.47;5111468;28;20462;-63
2024/01/14 01:47:25;;;;;;;1.60;0.93;;;;;;;-4.64;100.00;99025.84;5111296;28;20443;-63
2024/01/14 01:49:52;;;;;;;5.37;1.23;;;;;;;-4.68;100.00;99024.22;5111003;28;20466;-63
2024/01/14 01:52:19;;;;;;;0.97;0.90;;;;;;;-4.71;100.00;99034.22;5111169;28;20474;-63
2024/01/14 01:54:49;;;;;;;0.20;0.20;;;;;;;-4.74;100.00;99019.28;5111225;28;21010;-63
2024/01/14 01:57:17;;;;;;;0.77;0.77;;;;;;;-4.72;100.00;99012.63;5111200;28;20447;-64
2024/01/14 01:59:45;;;;;;;0.80;0.80;;;;;;;-4.82;100.00;99000.28;5110744;28;20443;-63
2024/01/14 02:02:12;;;;;;;4.47;0.80;;;;;;;-4.86;100.00;99008.63;5110961;28;20446;-64
2024/01/14 02:04:41;;;;;;;1.47;0.73;;;;;;;-4.95;100.00;99000.41;5110820;28;20439;-64
2024/01/14 02:07:08;;;;;;;0.60;0.60;;;;;;;-5.00;100.00;99002.97;5110923;28;20998;-63
2024/01/14 02:09:35;;;;;;;0.80;0.73;;;;;;;-4.96;100.00;99002.09;5110705;28;20455;-63
2024/01/14 02:12:02;;;;;;;0.50;0.50;;;;;;;-5.10;100.00;99001.41;5110667;28;21026;-64
2024/01/14 02:14:29;;;;;;;0.57;0.57;;;;;;;-5.09;100.00;98998.06;5110466;28;20450;-64
2024/01/14 02:16:56;;;;;;;0.43;0.43;;;;;;;-5.11;100.00;98987.31;5110614;28;20858;-63
2024/01/14 02:19:22;;;;;;;1.97;1.37;;;;;;;-5.19;100.00;98987.38;5110718;28;20454;-64
2024/01/14 02:21:59;;;;;;;0.30;0.30;;;;;;;-5.28;100.00;98983.31;5110628;28;20849;-64
2024/01/14 02:24:30;;;;;;;0.37;0.37;;;;;;;-5.21;100.00;98983.25;5110572;28;21024;-64
2024/01/14 02:26:57;;;;;;;1.23;0.33;;;;;;;-5.23;100.00;98970.81;5110474;28;20443;-63
2024/01/14 02:29:27;;;;;;;0.40;0.40;;;;;;;-5.32;100.00;98976.72;5110272;28;20438;-64
2024/01/14 02:31:54;;;;;;;0.57;0.57;;;;;;;-5.39;100.00;98980.09;5109793;28;20487;-64
2024/01/14 02:34:21;;;;;;;1.90;0.87;;;;;;;-5.42;100.00;98972.66;5109851;28;20447;-64
2024/01/14 02:36:48;;;;;;;2.10;1.03;;;;;;;-5.49;100.00;98968.59;5110030;28;20458;-64
2024/01/14 02:39:16;;;;;;;1.03;0.70;;;;;;;-5.48;100.00;98955.28;5110480;28;20442;-64
2024/01/14 02:41:44;;;;;;;0.30;0.30;;;;;;;-5.60;100.00;98966.19;5110608;28;20442;-63
2024/01/14 02:44:11;;;;;;;2.10;1.20;;;;;;;-5.45;100.00;98960.22;5110315;28;20481;-64
2024/01/14 02:46:39;;;;;;;3.87;1.17;;;;;;;-5.59;100.00;98962.03;5109990;28;20804;-64
2024/01/14 02:49:05;;;;;;;0.80;0.70;;;;;;;-5.51;100.00;98955.31;5110241;28;20450;-63
2024/01/14 02:51:32;;;;;;;0.40;0.40;;;;;;;-5.49;100.00;98953.63;5110096;28;21011;-64
2024/01/14 02:54:01;;;;;;;0.67;0.60;;;;;;;-5.45;100.00;98950.25;5110027;28;20458;-63
2024/01/14 02:56:27;;;;;;;1.23;0.60;;;;;;;-5.50;100.00;98946.97;5110056;28;20466;-63
2024/01/14 02:58:56;;;;;;;0.97;0.97;;;;;;;-5.50;100.00;98937.03;5109791;28;20450;-63
2024/01/14 03:01:23;;;;;;;0.30;0.30;;;;;;;-5.45;100.00;98935.31;5109901;28;20438;-63
2024/01/14 03:03:50;;;;;;;1.17;1.10;;;;;;;-5.48;100.00;98935.34;5109932;28;20451;-64
2024/01/14 03:06:17;;;;;;;0.87;0.43;;;;;;;-5.53;100.00;98922.09;5109945;28;20449;-64
2024/01/14 03:08:43;;;;;;;0.60;0.60;;;;;;;-5.54;100.00;98920.47;5109961;28;20456;-63
2024/01/14 03:11:10;;;;;;;1.50;0.70;;;;;;;-5.67;100.00;98914.78;5109568;28;20506;-63
2024/01/14 03:13:37;;;;;;;0.60;0.60;;;;;;;-5.59;100.00;98917.19;5109387;28;20990;-63
2024/01/14 03:16:06;;;;;;;0.60;0.60;;;;;;;-5.59;100.00;98922.16;5109666;28;20447;-63
2024/01/14 03:18:33;;;;;;;0.63;0.63;;;;;;;-5.61;100.00;98908.91;5108156;28;20884;-63
2024/01/14 03:21:00;;;;;;;1.10;1.00;;;;;;;-5.58;100.00;98903.91;5109780;28;20447;-63
2024/01/14 03:23:27;;;;;;;0.63;0.63;;;;;;;-5.60;100.00;98910.56;5109402;28;20451;-63
2024/01/14 03:25:54;;;;;;;0.40;0.40;;;;;;;-5.60;100.00;98915.56;5109354;28;20474;-64
2024/01/14 03:28:22;;;;;;;1.63;1.43;;;;;;;-5.56;100.00;98919.66;5109630;28;20439;-63
2024/01/14 03:30:49;;;;;;;1.17;0.87;;;;;;;-5.52;100.00;98918.78;5109356;28;20491;-63
2024/01/14 03:33:17;;;;;;;0.67;0.63;;;;;;;-5.51;100.00;98915.44;5109347;28;20443;-63
2024/01/14 03:35:44;;;;;;;0.93;0.93;;;;;;;-5.51;100.00;98911.28;5109290;28;20614;-64
2024/01/14 03:38:11;;;;;;;1.67;1.07;;;;;;;-5.52;100.00;98908.84;5109138;28;20860;-63
2024/01/14 03:40:37;;;;;;;0.83;0.73;;;;;;;-5.49;100.00;98912.13;5109473;28;20447;-64
2024/01/14 03:43:04;;;;;;;0.50;0.50;;;;;;;-5.55;100.00;98909.69;5109177;28;20449;-63
2024/01/14 03:45:31;;;;;;;0.43;0.43;;;;;;;-5.51;100.00;98915.44;5108861;28;20447;-64
2024/01/14 03:47:58;;;;;;;0.43;0.40;;;;;;;-5.48;100.00;98916.25;5109127;28;20661;-63
2024/01/14 03:50:26;;;;;;;10.50;0.73;;;;;;;-5.54;100.00;98905.53;5108953;28;21050;-63
2024/01/14 03:52:53;;;;;;;0.97;0.73;;;;;;;-5.50;100.00;98902.16;5108769;28;20581;-63
2024/01/14 03:55:20;;;;;;;1.40;1.03;;;;;;;-5.34;100.00;98903.66;5109000;28;20469;-63
2024/01/14 03:57:47;;;;;;;0.80;0.80;;;;;;;-5.20;100.00;98895.19;5108911;28;20531;-63
2024/01/14 04:00:14;;;;;;;0.53;0.50;;;;;;;-5.14;100.00;98900.09;5108945;28;20972;-63
2024/01/14 04:02:40;;;;;;;1.10;1.03;;;;;;;-5.13;100.00;98906.72;5109081;28;20450;-63
2024/01/14 04:05:07;;;;;;;0.53;0.53;;;;;;;-5.07;100.00;98901.69;5108960;28;20442;-63
2024/01/14 04:07:35;;;;;;;0.70;0.70;;;;;;;-5.16;100.00;98896.81;5108991;28;20604;-63
2024/01/14 04:10:02;;;;;;;0.80;0.80;;;;;;;-5.19;100.00;98901.81;5109120;28;20447;-63
2024/01/14 04:12:29;;;;;;;1.17;0.70;;;;;;;-5.13;100.00;98889.28;5108601;28;21051;-63
2024/01/14 04:14:56;;;;;;;1.00;0.50;;;;;;;-5.20;100.00;98885.22;5109185;28;20451;-64
2024/01/14 04:17:22;;;;;;;0.73;0.60;;;;;;;-5.17;100.00;98880.22;5108881;28;20461;-63
2024/01/14 04:19:49;;;;;;;1.17;0.77;;;;;;;-5.17;100.00;98885.19;5108762;28;20999;-63
2024/01/14 04:22:16;;;;;;;0.93;0.93;;;;;;;-5.19;100.00;98876.91;5108856;28;20887;-64
2024/01/14 04:24:44;;;;;;;0.30;0.30;;;;;;;-5.13;100.00;98881.81;5108900;28;20438;-64
2024/01/14 04:27:11;;;;;;;1.07;0.50;;;;;;;-5.19;100.00;98876.91;5108872;28;20455;-63
2024/01/14 04:29:38;;;;;;;0.47;0.47;;;;;;;-5.29;100.00;98874.53;5108856;28;20446;-64
2024/01/14 04:32:06;;;;;;;0.73;0.73;;;;;;;-5.34;100.00;98880.41;5108986;28;20486;-63
2024/01/14 04:34:33;;;;;;;0.40;0.40;;;;;;;-5.24;100.00;98877.78;5108567;28;20508;-64
2024/01/14 04:37:01;;;;;;;0.40;0.40;;;;;;;-5.17;100.00;98870.25;5108787;28;20451;-63
2024/01/14 04:39:27;;;;;;;2.63;1.87;;;;;;;-5.16;100.00;98866.91;5108653;28;20455;-63
2024/01/14 04:41:55;;;;;;;0.37;0.37;;;;;;;-5.16;100.00;98866.91;5108525;28;20447;-63
2024/01/14 04:44:22;;;;;;;0.57;0.57;;;;;;;-5.21;100.00;98863.63;5108509;28;20447;-63
2024/01/14 04:46:49;;;;;;;0.57;0.57;;;;;;;-5.30;100.00;98860.41;5108547;28;21030;-64
2024/01/14 04:49:16;;;;;;;0.57;0.57;;;;;;;-5.25;100.00;98861.19;5108515;28;20466;-63
2024/01/14 04:51:43;;;;;;;0.60;0.60;;;;;;;-5.33;100.00;98855.47;5108366;28;20498;-63
2024/01/14 04:54:11;;;;;;;0.77;0.77;;;;;;;-5.27;100.00;98847.91;5108823;28;20451;-63
2024/01/14 04:56:38;;;;;;;0.50;0.50;;;;;;;-5.19;100.00;98854.47;5110699;28;20833;-63
2024/01/14 04:59:06;;;;;;;0.90;0.90;;;;;;;-5.22;100.00;98857.81;5112341;28;20450;-63
2024/01/14 05:01:32;;;;;;;0.67;0.67;;;;;;;-5.26;100.00;98857.06;5112180;28;20831;-63
2024/01/14 05:03:59;;;;;;;0.67;0.67;;;;;;;-5.25;100.00;98856.19;5112211;28;20482;-63
2024/01/14 05:06:26;;;;;;;0.63;0.63;;;;;;;-5.32;100.00;98857.13;5112210;28;20449;-63
2024/01/14 05:08:53;;;;;;;0.20;0.20;;;;;;;-5.37;100.00;98853.84;5111771;28;20447;-63
2024/01/14 05:11:20;;;;;;;0.40;0.40;;;;;;;-5.44;100.00;98861.41;5112346;27;20511;-64
2024/01/14 05:13:46;;;;;;;0.53;0.53;;;;;;;-5.40;100.00;98853.88;5111679;28;20439;-63
2024/01/14 05:16:15;;;;;;;0.17;0.17;;;;;;;-5.43;100.00;98863.91;5112330;28;20937;-63
2024/01/14 05:18:42;;;;;;;0.47;0.47;;;;;;;-5.39;100.00;98859.69;5111948;28;20458;-63
2024/01/14 05:21:09;;;;;;;0.43;0.43;;;;;;;-5.47;100.00;98849.81;5111800;28;20467;-64
2024/01/14 05:23:35;;;;;;;1.37;0.63;;;;;;;-5.39;100.00;98848.06;5111959;28;20450;-63
2024/01/14 05:26:04;;;;;;;0.90;0.87;;;;;;;-5.40;100.00;98848.91;5111743;28;20486;-63
2024/01/14 05:28:30;;;;;;;3.17;0.67;;;;;;;-5.41;100.00;98852.25;5111456;28;20856;-62
2024/01/14 05:30:57;;;;;;;0.60;0.60;;;;;;;-5.37;100.00;98843.06;5111667;28;20447;-63
2024/01/14 05:33:26;;;;;;;1.37;0.80;;;;;;;-5.44;100.00;98851.44;5111189;28;20581;-63
2024/01/14 05:35:53;;;;;;;1.20;1.07;;;;;;;-5.47;100.00;98843.19;5111788;28;20887;-63
2024/01/14 05:38:19;;;;;;;2.20;1.00;;;;;;;-5.51;100.00;98840.72;5111625;28;20482;-63
2024/01/14 05:40:46;;;;;;;1.10;1.03;;;;;;;-5.52;100.00;98834.94;5111217;28;20443;-63
2024/01/14 05:43:13;;;;;;;1.27;1.17;;;;;;;-5.57;100.00;98835.81;5111171;28;20834;-63
2024/01/14 05:45:41;;;;;;;1.70;0.77;;;;;;;-5.53;100.00;98824.97;5111190;28;20455;-63
2024/01/14 05:48:08;;;;;;;1.10;0.47;;;;;;;-5.55;100.00;98829.16;5111229;28;20537;-63
2024/01/14 05:50:36;;;;;;;0.17;0.17;;;;;;;-5.65;100.00;98818.47;5111144;28;20956;-63
2024/01/14 05:53:03;;;;;;;0.73;0.57;;;;;;;-5.61;100.00;98815.13;5111215;28;21034;-64
2024/01/14 05:55:30;;;;;;;0.77;0.67;;;;;;;-5.59;100.00;98810.09;5111154;28;20634;-63
2024/01/14 05:57:57;;;;;;;1.20;0.93;;;;;;;-5.56;100.00;98807.56;5110931;28;20485;-63
2024/01/14 06:00:23;;;;;;;0.67;0.67;;;;;;;-5.53;100.00;98807.53;5111243;28;20447;-63
2024/01/14 06:02:50;;;;;;;0.93;0.83;;;;;;;-5.49;100.00;98805.00;5111077;28;20462;-63
2024/01/14 06:05:17;;;;;;;0.77;0.77;;;;;;;-5.45;100.00;98810.75;5110796;28;20451;-63
2024/01/14 06:07:45;;;;;;;0.50;0.50;;;;;;;-5.46;100.00;98804.97;5110882;28;20446;-63
2024/01/14 06:10:12;;;;;;;0.20;0.20;;;;;;;-5.36;100.00;98805.66;5111432;27;20535;-63
2024/01/14 06:12:39;;;;;;;0.60;0.60;;;;;;;-5.29;100.00;98801.44;5110808;28;20851;-63
2024/01/14 06:15:06;;;;;;;0.67;0.50;;;;;;;-5.24;100.00;98818.00;5110715;28;20447;-63
2024/01/14 06:17:33;;;;;;;0.53;0.53;;;;;;;-5.24;100.00;98812.16;5110610;28;20447;-63
2024/01/14 06:20:00;;;;;;;0.67;0.67;;;;;;;-5.12;100.00;98813.66;5110739;28;20443;-63
2024/01/14 06:22:27;;;;;;;0.93;0.93;;;;;;;-5.08;100.00;98810.31;5110459;28;20447;-63
2024/01/14 06:24:55;;;;;;;0.30;0.30;;;;;;;-5.00;100.00;98813.53;5110357;28;20450;-63
2024/01/14 06:27:22;;;;;;;0.20;0.20;;;;;;;-4.98;100.00;98799.34;5110408;28;20443;-63
2024/01/14 06:29:48;;;;;;;0.70;0.63;;;;;;;-4.85;100.00;98805.81;5110151;28;20455;-63
2024/01/14 06:32:16;;;;;;;0.57;0.27;;;;;;;-4.79;100.00;98802.41;5110803;28;20493;-63
2024/01/14 06:34:43;;;;;;;1.47;0.67;;;;;;;-4.74;100.00;98794.84;5110221;28;20845;-63
2024/01/14 06:37:10;;;;;;;0.97;0.97;;;;;;;-4.63;100.00;98798.81;5110328;28;20451;-63
2024/01/14 06:39:36;;;;;;;1.30;1.23;;;;;;;-4.49;100.00;98796.13;5110410;28;20838;-63
2024/01/14 06:42:05;;;;;;;0.50;0.50;;;;;;;-4.40;100.00;98805.13;5110468;28;20443;-64
2024/01/14 06:44:32;;;;;;;2.53;0.80;;;;;;;-4.27;100.00;98795.78;5110300;28;20455;-64
2024/01/14 06:46:59;;;;;;;1.73;1.17;;;;;;;-4.14;100.00;98794.69;5110056;28;20451;-63
2024/01/14 06:49:25;;;;;;;1.07;0.97;;;;;;;-4.06;100.00;98802.88;5109791;28;20986;-63
2024/01/14 06:51:52;;;;;;;0.20;0.20;;;;;;;-3.95;100.00;98797.69;5110299;28;20490;-63
2024/01/14 06:54:19;;;;;;;0.80;0.80;;;;;;;-3.83;100.00;98804.16;5110055;28;20443;-63
2024/01/14 06:56:46;;;;;;;6.03;1.00;;;;;;;-3.76;100.00;98808.16;5109753;28;20466;-63
2024/01/14 06:59:18;;;;;;;1.27;0.97;;;;;;;-3.67;100.00;98798.00;5110065;28;20530;-63
2024/01/14 07:01:45;;;;;;;2.60;1.23;;;;;;;-3.57;100.00;98794.47;5109781;28;20964;-63
2024/01/14 07:04:12;;;;;;;0.77;0.37;;;;;;;-3.42;100.00;98794.16;5109981;28;20534;-63
2024/01/14 07:06:39;;;;;;;1.50;1.07;;;;;;;-3.23;100.00;98793.75;5109609;28;20443;-63
2024/01/14 07:09:08;;;;;;;0.77;0.73;;;;;;;-2.87;100.00;98791.34;5109914;28;20609;-63
2024/01/14 07:11:35;;;;;;;0.50;0.50;;;;;;;-2.45;100.00;98788.66;5109875;28;20486;-63
2024/01/14 07:14:02;;;;;;;4.40;1.30;;;;;;;-2.00;100.00;98795.91;5109591;28;20951;-63
2024/01/14 07:16:31;;;;;;;0.40;0.40;;;;;;;-1.47;98.01;98791.13;5109439;27;20979;-63
2024/01/14 07:18:58;;;;;;;1.00;0.90;;;;;;;-0.92;93.34;98794.53;5108874;28;20442;-63
2024/01/14 07:21:25;;;;;;;2.33;1.10;;;;;;;-0.35;90.27;98783.53;5109821;28;21048;-63
2024/01/14 07:23:52;;;;;;;1.70;1.60;;;;;;;0.02;87.19;98789.00;5109439;28;20825;-63
2024/01/14 07:26:20;;;;;;;0.83;0.83;;;;;;;0.33;84.57;98783.72;5109438;28;20283;-63
2024/01/14 07:28:46;;;;;;;0.60;0.60;;;;;;;0.74;81.00;98792.28;5109280;28;20201;-63
2024/01/14 07:31:16;;;;;;;1.00;0.97;;;;;;;1.18;78.48;98782.22;5109622;28;20198;-63
2024/01/14 07:33:45;;;;;;;1.03;0.73;;;;;;;1.53;74.67;98785.88;5109122;28;20779;-63
2024/01/14 07:36:12;;;;;;;2.00;1.60;;;;;;;1.71;71.83;98773.41;5109435;28;20248;-63
2024/01/14 07:38:39;;;;;;;3.00;1.50;;;;;;;1.80;70.86;98773.03;5109243;28;20197;-62
2024/01/14 07:41:06;;;;;;;1.73;1.60;;;;;;;1.75;68.51;98764.84;5109395;28;20461;-62
2024/01/14 07:43:33;;;;;;;1.13;1.13;;;;;;;1.64;67.73;98755.22;5109037;28;20201;-62
2024/01/14 07:46:00;;;;;;;1.70;1.20;;;;;;;1.44;68.90;98750.97;5109173;28;20268;-62
2024/01/14 07:48:27;;;;;;;4.23;1.33;;;;;;;1.47;68.79;98758.41;5109229;28;20674;-62
2024/01/14 07:50:55;;;;;;;1.57;1.13;;;;;;;1.42;68.33;98772.88;5109410;28;20232;-62
2024/01/14 07:53:22;;;;;;;7.40;1.13;;;;;;;1.52;67.75;98751.50;5109032;28;20290;-62
2024/01/14 07:55:50;;;;;;;1.97;1.07;;;;;;;1.48;67.71;98755.00;5108951;28;20201;-62
2024/01/14 07:58:17;;;;;;;1.57;1.40;;;;;;;1.55;67.62;98753.06;5109176;28;20649;-63
2024/01/14 08:00:44;;;;;;;1.13;1.00;;;;;;;1.61;67.01;98746.97;5109166;28;20204;-62
2024/01/14 08:03:11;;;;;;;0.60;0.60;;;;;;;1.63;67.10;98752.72;5109108;28;20201;-62
2024/01/14 08:05:38;;;;;;;2.67;1.93;;;;;;;1.83;67.02;98757.75;5108873;28;20705;-63
2024/01/14 08:08:07;;;;;;;0.80;0.80;;;;;;;2.13;66.95;98755.66;5109220;28;20232;-63
2024/01/14 08:10:34;;;;;;;1.73;1.17;;;;;;;2.18;63.96;98763.00;5108926;28;20200;-63
2024/01/14 08:13:01;;;;;;;1.33;1.23;;;;;;;2.31;63.87;98764.13;5108980;28;20229;-63
2024/01/14 08:15:27;;;;;;;1.93;1.50;;;;;;;2.60;63.02;98769.59;5108721;28;20204;-63
2024/01/14 08:17:54;;;;;;;3.10;1.87;;;;;;;2.81;62.01;98773.66;5108667;28;20209;-63
2024/01/14 08:20:21;;;;;;;2.17;1.43;;;;;;;3.08;60.93;98763.19;5108758;28;20678;-63
2024/01/14 08:22:48;;;;;;;3.40;1.73;;;;;;;3.44;60.40;98763.16;5108798;28;20588;-63
2024/01/14 08:25:16;;;;;;;3.03;2.13;;;;;;;3.93;59.79;98762.47;5108919;28;20221;-63
2024/01/14 08:27:43;;;;;;;1.13;1.13;;;;;;;4.13;57.56;98761.41;5108554;28;20194;-63
2024/01/14 08:30:12;;;;;;;1.47;1.33;;;;;;;4.32;56.93;98762.13;5108776;28;20582;-63
2024/01/14 08:32:39;;;;;;;1.30;1.20;;;;;;;4.64;55.79;98757.91;5112849;28;20305;-63
2024/01/14 08:35:07;;;;;;;1.93;1.77;;;;;;;4.94;56.07;98757.94;5113134;28;20197;-64
2024/01/14 08:37:33;;;;;;;2.83;1.33;;;;;;;5.24;54.42;98766.50;5112558;28;20654;-64
2024/01/14 08:40:00;;;;;;;2.83;1.67;;;;;;;5.24;52.82;98762.25;5112688;28;20213;-64
2024/01/14 08:42:28;;;;;;;1.60;1.50;;;;;;;5.64;53.19;98760.84;5112392;28;20286;-64
2024/01/14 08:44:55;;;;;;;8.03;2.40;;;;;;;6.01;51.74;98758.72;5112678;28;20525;-64
2024/01/14 08:47:22;;;;;;;3.03;1.87;;;;;;;6.29;50.60;98757.09;5112426;28;20197;-64
2024/01/14 08:49:49;;;;;;;2.23;1.57;;;;;;;6.42;48.98;98757.16;5112279;28;20590;-64
2024/01/14 08:52:15;;;;;;;3.07;1.83;;;;;;;6.52;49.67;98751.44;5112188;27;20197;-65
2024/01/14 08:54:42;;;;;;;3.33;2.20;;;;;;;6.61;49.16;98752.59;5112246;28;20200;-65
2024/01/14 08:57:11;;;;;;;3.53;2.53;;;;;;;6.48;48.46;98747.44;5112340;27;20201;-65
2024/01/14 08:59:39;;;;;;;1.90;1.47;;;;;;;6.62;48.93;98750.88;5112127;27;20578;-65
2024/01/14 09:02:06;;;;;;;2.43;1.70;;;;;;;6.72;48.73;98749.38;5112084;28;20443;-65
2024/01/14 09:04:33;;;;;;;4.93;1.67;;;;;;;6.91;48.31;98749.88;5112399;27;20216;-66
2024/01/14 09:07:00;;;;;;;3.70;2.07;;;;;;;6.95;48.77;98748.78;5111990;28;20580;-66
2024/01/14 09:09:26;;;;;;;3.53;1.90;;;;;;;7.17;47.76;98760.13;5112323;28;20201;-65
2024/01/14 09:11:53;;;;;;;2.37;1.70;;;;;;;7.32;48.04;98754.06;5111868;28;20221;-64
2024/01/14 09:14:20;;;;;;;3.07;1.70;;;;;;;7.25;47.80;98742.66;5111945;28;20740;-65
2024/01/14 09:16:49;;;;;;;4.40;2.53;;;;;;;6.84;47.89;98738.47;5111945;28;20201;-64
2024/01/14 09:19:15;;;;;;;3.50;1.90;;;;;;;7.05;47.32;98748.19;5112133;27;20215;-65
2024/01/14 09:21:42;;;;;;;2.03;1.40;;;;;;;6.75;47.88;98744.13;5111816;28;20197;-64
2024/01/14 09:24:10;;;;;;;3.67;1.87;;;;;;;6.73;47.37;98736.59;5111702;28;20586;-64
2024/01/14 09:26:37;;;;;;;1.77;1.27;;;;;;;6.58;47.37;98735.81;5111600;28;20198;-64
2024/01/14 09:29:04;;;;;;;2.43;1.40;;;;;;;6.49;48.11;98728.75;5111633;28;20213;-65
2024/01/14 09:31:31;;;;;;;3.20;2.23;;;;;;;6.25;49.07;98720.06;5111618;28;20213;-65
2024/01/14 09:33:59;;;;;;;2.73;1.70;;;;;;;6.25;48.62;98725.16;5111502;28;20237;-64
2024/01/14 09:36:27;;;;;;;3.27;2.10;;;;;;;6.08;48.95;98709.22;5111570;28;20201;-64
2024/01/14 09:38:54;;;;;;;5.20;2.07;;;;;;;6.25;49.71;98713.28;5111298;28;20232;-65
2024/01/14 09:41:33;;;;;;;3.63;2.07;;;;;;;6.49;49.28;98698.28;5111065;28;20201;-65
2024/01/14 09:44:02;;;;;;;2.07;1.30;;;;;;;6.79;50.42;98694.75;5111106;28;20624;-65
2024/01/14 09:46:30;;;;;;;2.40;1.57;;;;;;;7.17;47.84;98684.66;5111602;28;20201;-64
2024/01/14 09:48:59;;;;;;;2.67;1.93;;;;;;;7.51;47.32;98681.66;5111170;28;20232;-64
2024/01/14 09:51:29;;;;;;;3.97;1.63;;;;;;;8.00;47.93;98683.44;5111383;28;20221;-64
2024/01/14 09:53:58;;;;;;;3.03;2.27;;;;;;;8.55;46.00;98680.50;5111048;28;20244;-64
2024/01/14 09:56:25;;;;;;;3.33;1.93;;;;;;;9.15;45.13;98686.38;5111014;28;20610;-64
2024/01/14 09:58:55;;;;;;;2.83;2.10;;;;;;;9.71;43.55;98685.66;5111070;28;20694;-64
2024/01/14 10:01:23;;;;;;;3.70;2.33;;;;;;;9.66;42.57;98683.47;5111124;28;20201;-64
2024/01/14 10:03:50;;;;;;;5.20;2.93;;;;;;;9.96;42.18;98684.63;5110918;28;20237;-64
2024/01/14 10:06:18;;;;;;;3.63;2.13;;;;;;;10.29;42.73;98690.66;5110936;28;20208;-64
2024/01/14 10:08:45;;;;;;;4.10;2.33;;;;;;;10.68;41.25;98688.50;5110883;28;20201;-64
2024/01/14 10:11:12;;;;;;;3.23;2.07;;;;;;;10.84;40.71;98678.66;5110825;28;20693;-64
2024/01/14 10:13:40;;;;;;;5.53;2.13;;;;;;;11.25;40.58;98671.94;5110659;28;20320;-64
2024/01/14 10:16:07;;;;;;;4.37;2.37;;;;;;;11.46;40.24;98667.66;5111191;28;20206;-64
2024/01/14 10:18:37;;;;;;;5.37;2.50;;;;;;;11.57;39.89;98669.31;5110797;28;20274;-64
2024/01/14 10:21:04;;;;;;;7.07;2.30;;;;;;;11.53;39.29;98668.75;5110620;28;20204;-64
2024/01/14 10:23:33;;;;;;;4.77;2.77;;;;;;;11.15;40.05;98673.66;5110543;28;20208;-63
2024/01/14 10:26:02;;;;;;;6.07;2.77;;;;;;;10.51;40.20;98659.16;5110542;28;20197;-64
2024/01/14 10:28:32;;;;;;;5.53;2.87;;;;;;;10.67;41.25;98674.06;5110398;28;20201;-64
2024/01/14 10:31:00;;;;;;;5.70;3.00;;;;;;;10.99;41.89;98668.94;5110750;28;20190;-64
2024/01/14 10:33:27;;;;;;;5.97;3.53;;;;;;;11.29;41.97;98661.34;5110329;28;20240;-64
2024/01/14 10:35:55;;;;;;;5.90;3.13;;;;;;;11.29;41.24;98660.56;5110436;28;20665;-64
2024/01/14 10:38:22;;;;;;;5.30;2.87;;;;;;;11.45;41.43;98654.97;5110487;28;20198;-64
2024/01/14 10:40:51;;;;;;;5.97;3.50;;;;;;;11.54;41.23;98660.13;5110498;28;20225;-64
2024/01/14 10:43:18;;;;;;;5.90;3.20;;;;;;;11.55;40.67;98651.53;5110141;28;20193;-64
2024/01/14 10:45:48;;;;;;;7.23;3.20;;;;;;;11.39;40.25;98655.47;5110049;28;20647;-64
2024/01/14 10:48:22;;;;;;;5.50;3.07;;;;;;;11.19;40.34;98654.53;5110401;28;20734;-64
2024/01/14 10:50:53;;;;;;;4.50;2.60;;;;;;;10.89;40.62;98658.66;5110447;28;20209;-63
2024/01/14 10:53:23;;;;;;;7.07;2.60;;;;;;;10.95;40.92;98647.94;5109076;28;20718;-64
2024/01/14 10:56:00;;;;;;;4.47;2.60;;;;;;;11.17;40.46;98641.91;5110395;28;20190;-64
2024/01/14 10:58:29;;;;;;;4.30;2.83;;;;;;;11.22;39.59;98639.75;5109948;28;20229;-64
2024/01/14 11:00:59;;;;;;;4.80;3.27;;;;;;;11.16;39.88;98645.38;5109938;28;20205;-64
2024/01/14 11:03:29;;;;;;;3.27;2.53;;;;;;;11.26;39.13;98640.31;5109677;28;20197;-64
2024/01/14 11:05:56;;;;;;;4.83;2.97;;;;;;;11.22;39.71;98649.19;5110044;28;20289;-64
2024/01/14 11:08:23;;;;;;;6.47;2.90;;;;;;;11.19;39.71;98641.75;5109893;28;20208;-63
2024/01/14 11:10:53;;;;;;;4.87;3.00;;;;;;;11.00;40.40;98629.66;5109674;28;20753;-64
2024/01/14 11:13:26;;;;;;;5.17;2.63;;;;;;;11.00;40.88;98630.47;5109808;28;20232;-64
2024/01/14 11:16:00;;;;;;;4.50;2.37;;;;;;;10.81;40.19;98640.56;5109492;28;20196;-64
2024/01/14 11:18:32;;;;;;;6.77;2.83;;;;;;;10.67;41.47;98633.97;5109463;28;20208;-64
2024/01/14 11:21:10;;;;;;;5.10;2.63;;;;;;;10.32;41.88;98637.56;5109651;28;20201;-64
2024/01/14 11:23:36;;;;;;;5.97;2.60;;;;;;;10.37;42.05;98639.78;5109442;28;20197;-64
2024/01/14 11:26:07;;;;;;;3.73;2.43;;;;;;;10.00;42.46;98642.59;5109480;28;20225;-64
2024/01/14 11:28:34;;;;;;;5.73;2.87;;;;;;;10.15;42.89;98648.28;5109435;28;20231;-64
2024/01/14 11:31:02;;;;;;;5.37;2.77;;;;;;;10.11;43.16;98640.03;5109447;28;20213;-64